sensor_id;sensor_type;location;lat;lon;timestamp;P1;durP1;ratioP1;P2;durP2;ratioP2
29214;SDS011;16252;49.816;7.964;2022-12-18T00:01:12;33.88;;;12.77;;
29214;SDS011;16252;49.816;7.964;2022-12-18T00:03:40;33.20;;;12.85;;
29214;SDS011;16252;49.816;7.964;2022-12-18T00:06:05;33.83;;;13.93;;
29214;SDS011;16252;49.816;7.964;2022-12-18T00:08:31;30.33;;;12.95;;
29214;SDS011;16252;49.816;7.964;2022-12-18T00:11:02;30.75;;;13.10;;
29214;SDS011;16252;49.816;7.964;2022-12-18T00:13:29;33.10;;;12.35;;
29214;SDS011;16252;49.816;7.964;2022-12-18T00:15:54;27.60;;;10.93;;
29214;SDS011;16252;49.816;7.964;2022-12-18T00:18:20;26.02;;;10.75;;
29214;SDS011;16252;49.816;7.964;2022-12-18T00:20:45;32.03;;;12.15;;
29214;SDS011;16252;49.816;7.964;2022-12-18T00:23:10;28.00;;;12.35;;
29214;SDS011;16252;49.816;7.964;2022-12-18T00:25:36;30.48;;;12.15;;
29214;SDS011;16252;49.816;7.964;2022-12-18T00:28:02;33.53;;;11.75;;
29214;SDS011;16252;49.816;7.964;2022-12-18T00:30:28;29.70;;;12.43;;
29214;SDS011;16252;49.816;7.964;2022-12-18T00:32:53;27.80;;;11.45;;
29214;SDS011;16252;49.816;7.964;2022-12-18T00:35:18;29.85;;;10.95;;
29214;SDS011;16252;49.816;7.964;2022-12-18T00:37:44;26.67;;;11.10;;
29214;SDS011;16252;49.816;7.964;2022-12-18T00:40:09;26.50;;;11.73;;
29214;SDS011;16252;49.816;7.964;2022-12-18T00:42:35;29.73;;;12.13;;
29214;SDS011;16252;49.816;7.964;2022-12-18T00:45:19;30.00;;;11.65;;
29214;SDS011;16252;49.816;7.964;2022-12-18T00:47:44;24.48;;;11.20;;
29214;SDS011;16252;49.816;7.964;2022-12-18T00:50:10;29.10;;;11.52;;
29214;SDS011;16252;49.816;7.964;2022-12-18T00:52:35;29.00;;;11.65;;
29214;SDS011;16252;49.816;7.964;2022-12-18T00:55:00;29.83;;;11.75;;
29214;SDS011;16252;49.816;7.964;2022-12-18T00:57:25;33.92;;;12.50;;
29214;SDS011;16252;49.816;7.964;2022-12-18T00:59:51;31.27;;;11.40;;
29214;SDS011;16252;49.816;7.964;2022-12-18T01:02:16;28.02;;;11.15;;
29214;SDS011;16252;49.816;7.964;2022-12-18T01:04:42;25.13;;;10.43;;
29214;SDS011;16252;49.816;7.964;2022-12-18T01:07:07;27.55;;;11.45;;
29214;SDS011;16252;49.816;7.964;2022-12-18T01:09:32;31.70;;;13.82;;
29214;SDS011;16252;49.816;7.964;2022-12-18T01:11:57;29.65;;;12.18;;
29214;SDS011;16252;49.816;7.964;2022-12-18T01:14:23;25.73;;;11.15;;
29214;SDS011;16252;49.816;7.964;2022-12-18T01:16:48;29.27;;;11.20;;
29214;SDS011;16252;49.816;7.964;2022-12-18T01:19:13;29.17;;;11.45;;
29214;SDS011;16252;49.816;7.964;2022-12-18T01:21:39;27.33;;;10.02;;
29214;SDS011;16252;49.816;7.964;2022-12-18T01:24:04;28.55;;;11.82;;
29214;SDS011;16252;49.816;7.964;2022-12-18T01:26:30;28.25;;;12.60;;
29214;SDS011;16252;49.816;7.964;2022-12-18T01:28:55;32.10;;;12.82;;
29214;SDS011;16252;49.816;7.964;2022-12-18T01:33:54;32.65;;;12.13;;
29214;SDS011;16252;49.816;7.964;2022-12-18T01:36:22;28.98;;;12.43;;
29214;SDS011;16252;49.816;7.964;2022-12-18T01:38:51;29.52;;;12.15;;
29214;SDS011;16252;49.816;7.964;2022-12-18T01:41:21;26.52;;;11.70;;
29214;SDS011;16252;49.816;7.964;2022-12-18T01:43:52;30.95;;;11.90;;
29214;SDS011;16252;49.816;7.964;2022-12-18T01:46:23;23.55;;;10.52;;
29214;SDS011;16252;49.816;7.964;2022-12-18T01:48:51;26.40;;;11.50;;
29214;SDS011;16252;49.816;7.964;2022-12-18T01:51:20;27.40;;;10.85;;
29214;SDS011;16252;49.816;7.964;2022-12-18T01:53:46;28.65;;;11.60;;
29214;SDS011;16252;49.816;7.964;2022-12-18T01:56:13;28.65;;;12.93;;
29214;SDS011;16252;49.816;7.964;2022-12-18T01:58:46;33.47;;;13.10;;
29214;SDS011;16252;49.816;7.964;2022-12-18T02:01:17;32.25;;;12.68;;
29214;SDS011;16252;49.816;7.964;2022-12-18T02:03:45;28.42;;;11.95;;
29214;SDS011;16252;49.816;7.964;2022-12-18T02:06:15;30.17;;;12.80;;
29214;SDS011;16252;49.816;7.964;2022-12-18T02:11:59;28.30;;;11.82;;
29214;SDS011;16252;49.816;7.964;2022-12-18T02:17:47;26.73;;;12.20;;
29214;SDS011;16252;49.816;7.964;2022-12-18T02:28:46;34.38;;;13.13;;
29214;SDS011;16252;49.816;7.964;2022-12-18T02:31:19;28.08;;;12.10;;
29214;SDS011;16252;49.816;7.964;2022-12-18T02:34:08;28.60;;;12.35;;
29214;SDS011;16252;49.816;7.964;2022-12-18T02:36:36;29.20;;;11.93;;
29214;SDS011;16252;49.816;7.964;2022-12-18T02:39:05;31.23;;;12.52;;
29214;SDS011;16252;49.816;7.964;2022-12-18T02:41:33;28.67;;;11.13;;
29214;SDS011;16252;49.816;7.964;2022-12-18T02:44:07;25.15;;;10.77;;
29214;SDS011;16252;49.816;7.964;2022-12-18T02:46:36;23.88;;;10.82;;
29214;SDS011;16252;49.816;7.964;2022-12-18T02:54:53;28.35;;;11.95;;
29214;SDS011;16252;49.816;7.964;2022-12-18T02:57:37;26.98;;;12.82;;
29214;SDS011;16252;49.816;7.964;2022-12-18T03:00:11;29.50;;;13.25;;
29214;SDS011;16252;49.816;7.964;2022-12-18T03:03:02;32.33;;;13.13;;
29214;SDS011;16252;49.816;7.964;2022-12-18T03:08:03;34.03;;;12.93;;
29214;SDS011;16252;49.816;7.964;2022-12-18T03:10:31;27.63;;;11.80;;
29214;SDS011;16252;49.816;7.964;2022-12-18T03:13:02;30.35;;;12.23;;
29214;SDS011;16252;49.816;7.964;2022-12-18T03:15:33;37.00;;;12.70;;
29214;SDS011;16252;49.816;7.964;2022-12-18T03:18:07;32.47;;;12.68;;
29214;SDS011;16252;49.816;7.964;2022-12-18T03:20:38;30.83;;;12.45;;
29214;SDS011;16252;49.816;7.964;2022-12-18T03:23:09;30.08;;;11.90;;
29214;SDS011;16252;49.816;7.964;2022-12-18T03:25:38;31.38;;;12.38;;
29214;SDS011;16252;49.816;7.964;2022-12-18T03:28:07;27.80;;;12.43;;
29214;SDS011;16252;49.816;7.964;2022-12-18T03:35:52;16.77;;;7.45;;
29214;SDS011;16252;49.816;7.964;2022-12-18T03:38:18;28.35;;;11.63;;
29214;SDS011;16252;49.816;7.964;2022-12-18T03:40:59;25.33;;;10.93;;
29214;SDS011;16252;49.816;7.964;2022-12-18T03:43:35;29.90;;;11.43;;
29214;SDS011;16252;49.816;7.964;2022-12-18T03:46:08;31.02;;;11.95;;
29214;SDS011;16252;49.816;7.964;2022-12-18T03:49:08;27.70;;;10.95;;
29214;SDS011;16252;49.816;7.964;2022-12-18T03:51:56;24.42;;;11.13;;
29214;SDS011;16252;49.816;7.964;2022-12-18T03:54:28;30.60;;;11.18;;
29214;SDS011;16252;49.816;7.964;2022-12-18T03:57:06;25.42;;;10.85;;
29214;SDS011;16252;49.816;7.964;2022-12-18T03:59:35;30.95;;;13.27;;
29214;SDS011;16252;49.816;7.964;2022-12-18T04:02:04;30.42;;;12.82;;
29214;SDS011;16252;49.816;7.964;2022-12-18T04:04:31;31.88;;;13.18;;
29214;SDS011;16252;49.816;7.964;2022-12-18T04:06:58;27.48;;;11.35;;
29214;SDS011;16252;49.816;7.964;2022-12-18T04:09:23;26.65;;;11.30;;
29214;SDS011;16252;49.816;7.964;2022-12-18T04:11:50;27.33;;;11.63;;
29214;SDS011;16252;49.816;7.964;2022-12-18T04:14:16;25.80;;;11.80;;
29214;SDS011;16252;49.816;7.964;2022-12-18T04:16:42;28.80;;;11.93;;
29214;SDS011;16252;49.816;7.964;2022-12-18T04:19:07;27.80;;;12.45;;
29214;SDS011;16252;49.816;7.964;2022-12-18T04:21:32;25.65;;;11.63;;
29214;SDS011;16252;49.816;7.964;2022-12-18T04:23:58;26.58;;;10.65;;
29214;SDS011;16252;49.816;7.964;2022-12-18T04:26:23;26.25;;;12.13;;
29214;SDS011;16252;49.816;7.964;2022-12-18T04:28:48;30.08;;;11.25;;
29214;SDS011;16252;49.816;7.964;2022-12-18T04:31:13;30.50;;;12.40;;
29214;SDS011;16252;49.816;7.964;2022-12-18T04:33:39;27.92;;;12.02;;
29214;SDS011;16252;49.816;7.964;2022-12-18T04:36:04;35.85;;;12.68;;
29214;SDS011;16252;49.816;7.964;2022-12-18T04:38:30;33.80;;;12.60;;
29214;SDS011;16252;49.816;7.964;2022-12-18T04:40:55;27.40;;;12.57;;
29214;SDS011;16252;49.816;7.964;2022-12-18T04:43:21;26.52;;;12.02;;
29214;SDS011;16252;49.816;7.964;2022-12-18T04:45:46;33.00;;;12.85;;
29214;SDS011;16252;49.816;7.964;2022-12-18T04:48:11;27.23;;;12.18;;
29214;SDS011;16252;49.816;7.964;2022-12-18T04:50:37;27.65;;;11.70;;
29214;SDS011;16252;49.816;7.964;2022-12-18T04:53:02;29.65;;;12.30;;
29214;SDS011;16252;49.816;7.964;2022-12-18T04:55:27;30.90;;;13.05;;
29214;SDS011;16252;49.816;7.964;2022-12-18T04:57:53;28.65;;;12.88;;
29214;SDS011;16252;49.816;7.964;2022-12-18T05:00:18;30.92;;;12.98;;
29214;SDS011;16252;49.816;7.964;2022-12-18T05:02:44;26.98;;;12.07;;
29214;SDS011;16252;49.816;7.964;2022-12-18T05:05:09;31.52;;;12.75;;
29214;SDS011;16252;49.816;7.964;2022-12-18T05:07:35;29.02;;;12.63;;
29214;SDS011;16252;49.816;7.964;2022-12-18T05:10:00;24.50;;;11.50;;
29214;SDS011;16252;49.816;7.964;2022-12-18T05:12:26;27.38;;;11.82;;
29214;SDS011;16252;49.816;7.964;2022-12-18T05:14:52;25.60;;;12.05;;
29214;SDS011;16252;49.816;7.964;2022-12-18T05:17:17;26.83;;;12.82;;
29214;SDS011;16252;49.816;7.964;2022-12-18T05:19:42;32.33;;;13.23;;
29214;SDS011;16252;49.816;7.964;2022-12-18T05:22:08;27.75;;;12.15;;
29214;SDS011;16252;49.816;7.964;2022-12-18T05:24:34;28.13;;;12.15;;
29214;SDS011;16252;49.816;7.964;2022-12-18T05:26:59;29.25;;;12.77;;
29214;SDS011;16252;49.816;7.964;2022-12-18T05:29:24;32.30;;;12.25;;
29214;SDS011;16252;49.816;7.964;2022-12-18T05:31:50;25.55;;;12.32;;
29214;SDS011;16252;49.816;7.964;2022-12-18T05:34:15;26.90;;;12.18;;
29214;SDS011;16252;49.816;7.964;2022-12-18T05:36:41;28.05;;;12.50;;
29214;SDS011;16252;49.816;7.964;2022-12-18T05:39:06;26.13;;;11.82;;
29214;SDS011;16252;49.816;7.964;2022-12-18T05:41:31;30.45;;;13.02;;
29214;SDS011;16252;49.816;7.964;2022-12-18T05:43:57;29.85;;;12.10;;
29214;SDS011;16252;49.816;7.964;2022-12-18T05:46:23;26.98;;;12.25;;
29214;SDS011;16252;49.816;7.964;2022-12-18T05:48:49;31.30;;;13.70;;
29214;SDS011;16252;49.816;7.964;2022-12-18T05:51:16;26.25;;;11.98;;
29214;SDS011;16252;49.816;7.964;2022-12-18T05:53:43;30.23;;;12.43;;
29214;SDS011;16252;49.816;7.964;2022-12-18T05:56:10;25.80;;;11.65;;
29214;SDS011;16252;49.816;7.964;2022-12-18T05:58:39;22.75;;;10.57;;
29214;SDS011;16252;49.816;7.964;2022-12-18T06:01:07;27.15;;;12.48;;
29214;SDS011;16252;49.816;7.964;2022-12-18T06:03:35;25.60;;;11.30;;
29214;SDS011;16252;49.816;7.964;2022-12-18T06:06:00;28.52;;;12.48;;
29214;SDS011;16252;49.816;7.964;2022-12-18T06:08:26;28.33;;;11.90;;
29214;SDS011;16252;49.816;7.964;2022-12-18T06:10:52;26.92;;;12.80;;
29214;SDS011;16252;49.816;7.964;2022-12-18T06:13:18;30.48;;;12.43;;
29214;SDS011;16252;49.816;7.964;2022-12-18T06:15:44;32.95;;;13.30;;
29214;SDS011;16252;49.816;7.964;2022-12-18T06:18:09;27.83;;;11.95;;
29214;SDS011;16252;49.816;7.964;2022-12-18T06:20:34;27.13;;;12.10;;
29214;SDS011;16252;49.816;7.964;2022-12-18T06:23:01;29.10;;;11.77;;
29214;SDS011;16252;49.816;7.964;2022-12-18T06:25:27;25.65;;;12.65;;
29214;SDS011;16252;49.816;7.964;2022-12-18T06:27:53;26.75;;;12.60;;
29214;SDS011;16252;49.816;7.964;2022-12-18T06:30:18;27.38;;;12.30;;
29214;SDS011;16252;49.816;7.964;2022-12-18T06:32:44;27.83;;;13.52;;
29214;SDS011;16252;49.816;7.964;2022-12-18T06:35:09;24.63;;;12.25;;
29214;SDS011;16252;49.816;7.964;2022-12-18T06:37:35;27.58;;;12.02;;
29214;SDS011;16252;49.816;7.964;2022-12-18T06:40:00;27.63;;;12.15;;
29214;SDS011;16252;49.816;7.964;2022-12-18T06:42:25;31.88;;;13.63;;
29214;SDS011;16252;49.816;7.964;2022-12-18T06:44:51;36.88;;;16.02;;
29214;SDS011;16252;49.816;7.964;2022-12-18T06:47:17;37.08;;;15.20;;
29214;SDS011;16252;49.816;7.964;2022-12-18T06:49:43;39.22;;;16.13;;
29214;SDS011;16252;49.816;7.964;2022-12-18T06:52:08;38.97;;;15.02;;
29214;SDS011;16252;49.816;7.964;2022-12-18T06:54:33;41.03;;;15.40;;
29214;SDS011;16252;49.816;7.964;2022-12-18T06:56:59;39.67;;;15.15;;
29214;SDS011;16252;49.816;7.964;2022-12-18T06:59:24;41.72;;;14.75;;
29214;SDS011;16252;49.816;7.964;2022-12-18T07:01:49;37.42;;;15.35;;
29214;SDS011;16252;49.816;7.964;2022-12-18T07:04:15;36.08;;;15.10;;
29214;SDS011;16252;49.816;7.964;2022-12-18T07:06:40;35.67;;;15.43;;
29214;SDS011;16252;49.816;7.964;2022-12-18T07:09:05;37.30;;;14.18;;
29214;SDS011;16252;49.816;7.964;2022-12-18T07:11:32;35.45;;;14.57;;
29214;SDS011;16252;49.816;7.964;2022-12-18T07:13:57;34.72;;;13.52;;
29214;SDS011;16252;49.816;7.964;2022-12-18T07:16:24;33.97;;;14.55;;
29214;SDS011;16252;49.816;7.964;2022-12-18T07:18:50;41.40;;;15.00;;
29214;SDS011;16252;49.816;7.964;2022-12-18T07:21:16;37.00;;;14.77;;
29214;SDS011;16252;49.816;7.964;2022-12-18T07:23:43;36.50;;;15.23;;
29214;SDS011;16252;49.816;7.964;2022-12-18T07:26:10;37.50;;;14.73;;
29214;SDS011;16252;49.816;7.964;2022-12-18T07:28:37;34.20;;;14.25;;
29214;SDS011;16252;49.816;7.964;2022-12-18T07:31:04;32.55;;;13.30;;
29214;SDS011;16252;49.816;7.964;2022-12-18T07:33:31;30.42;;;13.32;;
29214;SDS011;16252;49.816;7.964;2022-12-18T07:35:58;25.70;;;11.65;;
29214;SDS011;16252;49.816;7.964;2022-12-18T07:38:24;29.58;;;12.65;;
29214;SDS011;16252;49.816;7.964;2022-12-18T07:40:49;26.98;;;12.02;;
29214;SDS011;16252;49.816;7.964;2022-12-18T07:43:14;35.97;;;12.27;;
29214;SDS011;16252;49.816;7.964;2022-12-18T07:45:39;32.33;;;13.85;;
29214;SDS011;16252;49.816;7.964;2022-12-18T07:48:05;29.10;;;12.88;;
29214;SDS011;16252;49.816;7.964;2022-12-18T07:50:30;35.38;;;13.43;;
29214;SDS011;16252;49.816;7.964;2022-12-18T07:52:55;38.90;;;12.25;;
29214;SDS011;16252;49.816;7.964;2022-12-18T07:55:21;32.55;;;13.32;;
29214;SDS011;16252;49.816;7.964;2022-12-18T07:57:46;29.88;;;11.68;;
29214;SDS011;16252;49.816;7.964;2022-12-18T08:00:11;29.10;;;12.57;;
29214;SDS011;16252;49.816;7.964;2022-12-18T08:02:37;24.77;;;10.77;;
29214;SDS011;16252;49.816;7.964;2022-12-18T08:05:03;28.63;;;11.88;;
29214;SDS011;16252;49.816;7.964;2022-12-18T08:07:29;29.27;;;12.13;;
29214;SDS011;16252;49.816;7.964;2022-12-18T08:09:54;26.83;;;12.60;;
29214;SDS011;16252;49.816;7.964;2022-12-18T08:12:19;33.33;;;13.77;;
29214;SDS011;16252;49.816;7.964;2022-12-18T08:14:44;28.67;;;12.73;;
29214;SDS011;16252;49.816;7.964;2022-12-18T08:17:10;29.77;;;12.25;;
29214;SDS011;16252;49.816;7.964;2022-12-18T08:19:35;36.97;;;13.43;;
29214;SDS011;16252;49.816;7.964;2022-12-18T08:22:00;30.83;;;12.90;;
29214;SDS011;16252;49.816;7.964;2022-12-18T08:24:25;35.60;;;14.43;;
29214;SDS011;16252;49.816;7.964;2022-12-18T08:26:51;35.28;;;13.60;;
29214;SDS011;16252;49.816;7.964;2022-12-18T08:29:16;38.28;;;15.50;;
29214;SDS011;16252;49.816;7.964;2022-12-18T08:31:41;27.67;;;12.57;;
29214;SDS011;16252;49.816;7.964;2022-12-18T08:34:07;37.20;;;14.40;;
29214;SDS011;16252;49.816;7.964;2022-12-18T08:36:33;36.33;;;14.82;;
29214;SDS011;16252;49.816;7.964;2022-12-18T08:38:58;35.85;;;13.82;;
29214;SDS011;16252;49.816;7.964;2022-12-18T08:41:23;34.03;;;14.20;;
29214;SDS011;16252;49.816;7.964;2022-12-18T08:43:49;32.13;;;13.70;;
29214;SDS011;16252;49.816;7.964;2022-12-18T08:46:42;26.50;;;11.88;;
29214;SDS011;16252;49.816;7.964;2022-12-18T08:49:08;29.90;;;13.05;;
29214;SDS011;16252;49.816;7.964;2022-12-18T08:51:35;30.13;;;12.93;;
29214;SDS011;16252;49.816;7.964;2022-12-18T08:54:00;27.67;;;12.55;;
29214;SDS011;16252;49.816;7.964;2022-12-18T08:56:26;32.42;;;14.02;;
29214;SDS011;16252;49.816;7.964;2022-12-18T08:58:52;33.10;;;13.30;;
29214;SDS011;16252;49.816;7.964;2022-12-18T09:01:18;32.58;;;12.63;;
29214;SDS011;16252;49.816;7.964;2022-12-18T09:03:43;34.78;;;13.18;;
29214;SDS011;16252;49.816;7.964;2022-12-18T09:06:15;28.95;;;12.32;;
29214;SDS011;16252;49.816;7.964;2022-12-18T09:08:42;26.42;;;12.15;;
29214;SDS011;16252;49.816;7.964;2022-12-18T09:11:22;27.13;;;12.07;;
29214;SDS011;16252;49.816;7.964;2022-12-18T09:13:51;26.35;;;12.73;;
29214;SDS011;16252;49.816;7.964;2022-12-18T09:16:18;31.40;;;13.13;;
29214;SDS011;16252;49.816;7.964;2022-12-18T09:18:44;31.27;;;13.75;;
29214;SDS011;16252;49.816;7.964;2022-12-18T09:21:11;29.13;;;13.07;;
29214;SDS011;16252;49.816;7.964;2022-12-18T09:23:38;28.70;;;12.73;;
29214;SDS011;16252;49.816;7.964;2022-12-18T09:26:04;30.73;;;12.90;;
29214;SDS011;16252;49.816;7.964;2022-12-18T09:28:30;32.50;;;12.60;;
29214;SDS011;16252;49.816;7.964;2022-12-18T09:30:55;33.40;;;12.48;;
29214;SDS011;16252;49.816;7.964;2022-12-18T09:33:20;36.40;;;13.80;;
29214;SDS011;16252;49.816;7.964;2022-12-18T09:35:46;31.75;;;12.43;;
29214;SDS011;16252;49.816;7.964;2022-12-18T09:38:12;29.23;;;12.13;;
29214;SDS011;16252;49.816;7.964;2022-12-18T09:40:45;16.02;;;8.85;;
29214;SDS011;16252;49.816;7.964;2022-12-18T09:43:15;31.45;;;12.65;;
29214;SDS011;16252;49.816;7.964;2022-12-18T09:45:46;27.70;;;12.40;;
29214;SDS011;16252;49.816;7.964;2022-12-18T09:48:18;25.02;;;11.50;;
29214;SDS011;16252;49.816;7.964;2022-12-18T09:50:48;26.15;;;11.65;;
29214;SDS011;16252;49.816;7.964;2022-12-18T09:53:20;26.58;;;11.75;;
29214;SDS011;16252;49.816;7.964;2022-12-18T09:55:49;30.02;;;13.40;;
29214;SDS011;16252;49.816;7.964;2022-12-18T10:01:23;26.35;;;13.00;;
29214;SDS011;16252;49.816;7.964;2022-12-18T10:03:49;25.60;;;12.45;;
29214;SDS011;16252;49.816;7.964;2022-12-18T10:09:29;31.55;;;14.27;;
29214;SDS011;16252;49.816;7.964;2022-12-18T10:12:06;29.75;;;13.45;;
29214;SDS011;16252;49.816;7.964;2022-12-18T10:20:13;27.48;;;13.60;;
29214;SDS011;16252;49.816;7.964;2022-12-18T10:28:07;31.30;;;14.52;;
29214;SDS011;16252;49.816;7.964;2022-12-18T10:30:37;28.50;;;14.82;;
29214;SDS011;16252;49.816;7.964;2022-12-18T10:33:03;34.42;;;15.35;;
29214;SDS011;16252;49.816;7.964;2022-12-18T10:35:29;33.05;;;14.82;;
29214;SDS011;16252;49.816;7.964;2022-12-18T10:43:21;29.30;;;13.80;;
29214;SDS011;16252;49.816;7.964;2022-12-18T10:46:30;33.17;;;14.93;;
29214;SDS011;16252;49.816;7.964;2022-12-18T10:48:50;26.88;;;12.52;;
29214;SDS011;16252;49.816;7.964;2022-12-18T10:54:14;38.55;;;17.45;;
29214;SDS011;16252;49.816;7.964;2022-12-18T10:56:40;31.35;;;14.80;;
29214;SDS011;16252;49.816;7.964;2022-12-18T10:59:06;30.73;;;14.88;;
29214;SDS011;16252;49.816;7.964;2022-12-18T11:01:55;29.17;;;14.55;;
29214;SDS011;16252;49.816;7.964;2022-12-18T11:04:23;30.83;;;14.60;;
29214;SDS011;16252;49.816;7.964;2022-12-18T11:07:06;31.50;;;14.25;;
29214;SDS011;16252;49.816;7.964;2022-12-18T11:09:34;28.10;;;13.13;;
29214;SDS011;16252;49.816;7.964;2022-12-18T11:12:01;30.20;;;14.35;;
29214;SDS011;16252;49.816;7.964;2022-12-18T11:14:46;27.75;;;14.30;;
29214;SDS011;16252;49.816;7.964;2022-12-18T11:17:20;32.03;;;15.50;;
29214;SDS011;16252;49.816;7.964;2022-12-18T11:19:53;26.95;;;14.63;;
29214;SDS011;16252;49.816;7.964;2022-12-18T11:22:24;31.35;;;14.98;;
29214;SDS011;16252;49.816;7.964;2022-12-18T11:27:36;32.00;;;16.73;;
29214;SDS011;16252;49.816;7.964;2022-12-18T11:30:13;32.50;;;15.43;;
29214;SDS011;16252;49.816;7.964;2022-12-18T11:32:55;32.10;;;15.13;;
29214;SDS011;16252;49.816;7.964;2022-12-18T11:38:21;37.88;;;17.85;;
29214;SDS011;16252;49.816;7.964;2022-12-18T11:40:57;39.10;;;17.45;;
29214;SDS011;16252;49.816;7.964;2022-12-18T11:43:29;37.65;;;17.25;;
29214;SDS011;16252;49.816;7.964;2022-12-18T11:46:05;36.58;;;17.00;;
29214;SDS011;16252;49.816;7.964;2022-12-18T11:48:45;44.58;;;19.35;;
29214;SDS011;16252;49.816;7.964;2022-12-18T11:51:26;40.45;;;18.23;;
29214;SDS011;16252;49.816;7.964;2022-12-18T11:53:58;35.95;;;15.68;;
29214;SDS011;16252;49.816;7.964;2022-12-18T11:56:39;35.28;;;16.00;;
29214;SDS011;16252;49.816;7.964;2022-12-18T11:59:25;35.22;;;15.68;;
29214;SDS011;16252;49.816;7.964;2022-12-18T12:01:53;33.03;;;16.30;;
29214;SDS011;16252;49.816;7.964;2022-12-18T12:10:22;32.25;;;16.30;;
29214;SDS011;16252;49.816;7.964;2022-12-18T12:16:02;34.80;;;16.55;;
29214;SDS011;16252;49.816;7.964;2022-12-18T12:18:45;38.13;;;16.73;;
29214;SDS011;16252;49.816;7.964;2022-12-18T12:24:27;39.05;;;17.92;;
29214;SDS011;16252;49.816;7.964;2022-12-18T12:27:18;45.83;;;19.95;;
29214;SDS011;16252;49.816;7.964;2022-12-18T12:30:11;37.10;;;16.95;;
29214;SDS011;16252;49.816;7.964;2022-12-18T12:38:41;32.83;;;16.00;;
29214;SDS011;16252;49.816;7.964;2022-12-18T12:41:12;37.30;;;16.73;;
29214;SDS011;16252;49.816;7.964;2022-12-18T12:44:01;31.73;;;15.52;;
29214;SDS011;16252;49.816;7.964;2022-12-18T12:46:31;32.58;;;15.90;;
29214;SDS011;16252;49.816;7.964;2022-12-18T12:49:00;36.77;;;17.00;;
29214;SDS011;16252;49.816;7.964;2022-12-18T12:51:32;39.28;;;17.83;;
29214;SDS011;16252;49.816;7.964;2022-12-18T12:54:01;45.92;;;19.23;;
29214;SDS011;16252;49.816;7.964;2022-12-18T12:56:36;40.60;;;18.17;;
29214;SDS011;16252;49.816;7.964;2022-12-18T12:59:18;37.58;;;17.58;;
29214;SDS011;16252;49.816;7.964;2022-12-18T13:02:02;38.38;;;18.42;;
29214;SDS011;16252;49.816;7.964;2022-12-18T13:04:39;42.72;;;18.33;;
29214;SDS011;16252;49.816;7.964;2022-12-18T13:07:14;48.00;;;21.08;;
29214;SDS011;16252;49.816;7.964;2022-12-18T13:20:33;48.22;;;20.65;;
29214;SDS011;16252;49.816;7.964;2022-12-18T13:23:01;50.38;;;23.23;;
29214;SDS011;16252;49.816;7.964;2022-12-18T13:25:44;43.28;;;20.02;;
29214;SDS011;16252;49.816;7.964;2022-12-18T13:35:39;47.00;;;21.27;;
29214;SDS011;16252;49.816;7.964;2022-12-18T13:38:22;44.70;;;20.10;;
29214;SDS011;16252;49.816;7.964;2022-12-18T13:43:45;49.03;;;22.27;;
29214;SDS011;16252;49.816;7.964;2022-12-18T13:46:18;42.03;;;20.38;;
29214;SDS011;16252;49.816;7.964;2022-12-18T13:51:53;37.88;;;18.98;;
29214;SDS011;16252;49.816;7.964;2022-12-18T13:54:33;44.08;;;19.50;;
29214;SDS011;16252;49.816;7.964;2022-12-18T13:57:01;38.05;;;18.40;;
29214;SDS011;16252;49.816;7.964;2022-12-18T14:02:16;40.75;;;18.08;;
29214;SDS011;16252;49.816;7.964;2022-12-18T14:04:46;41.88;;;18.98;;
29214;SDS011;16252;49.816;7.964;2022-12-18T14:07:13;35.38;;;13.35;;
29214;SDS011;16252;49.816;7.964;2022-12-18T14:09:48;38.13;;;17.45;;
29214;SDS011;16252;49.816;7.964;2022-12-18T14:12:16;39.70;;;19.23;;
29214;SDS011;16252;49.816;7.964;2022-12-18T14:15:05;46.05;;;21.08;;
29214;SDS011;16252;49.816;7.964;2022-12-18T14:17:36;43.85;;;19.75;;
29214;SDS011;16252;49.816;7.964;2022-12-18T14:20:01;40.17;;;17.90;;
29214;SDS011;16252;49.816;7.964;2022-12-18T14:22:27;43.42;;;19.60;;
29214;SDS011;16252;49.816;7.964;2022-12-18T14:25:05;42.03;;;18.77;;
29214;SDS011;16252;49.816;7.964;2022-12-18T14:27:44;42.25;;;17.75;;
29214;SDS011;16252;49.816;7.964;2022-12-18T14:30:30;39.75;;;17.63;;
29214;SDS011;16252;49.816;7.964;2022-12-18T14:33:01;35.75;;;16.70;;
29214;SDS011;16252;49.816;7.964;2022-12-18T14:35:26;34.97;;;16.35;;
29214;SDS011;16252;49.816;7.964;2022-12-18T14:37:52;41.90;;;18.40;;
29214;SDS011;16252;49.816;7.964;2022-12-18T14:40:17;38.08;;;17.98;;
29214;SDS011;16252;49.816;7.964;2022-12-18T14:42:42;39.80;;;18.23;;
29214;SDS011;16252;49.816;7.964;2022-12-18T14:48:51;41.90;;;18.08;;
29214;SDS011;16252;49.816;7.964;2022-12-18T14:51:01;36.20;;;15.95;;
29214;SDS011;16252;49.816;7.964;2022-12-18T14:53:48;35.95;;;16.55;;
29214;SDS011;16252;49.816;7.964;2022-12-18T14:56:20;37.17;;;18.73;;
29214;SDS011;16252;49.816;7.964;2022-12-18T15:01:32;39.97;;;18.23;;
29214;SDS011;16252;49.816;7.964;2022-12-18T15:04:00;41.03;;;18.90;;
29214;SDS011;16252;49.816;7.964;2022-12-18T15:06:28;43.10;;;19.48;;
29214;SDS011;16252;49.816;7.964;2022-12-18T15:09:26;43.00;;;19.02;;
29214;SDS011;16252;49.816;7.964;2022-12-18T15:11:55;40.92;;;19.40;;
29214;SDS011;16252;49.816;7.964;2022-12-18T15:14:38;38.58;;;18.45;;
29214;SDS011;16252;49.816;7.964;2022-12-18T15:17:18;37.55;;;17.40;;
29214;SDS011;16252;49.816;7.964;2022-12-18T15:19:46;37.03;;;16.63;;
29214;SDS011;16252;49.816;7.964;2022-12-18T15:22:22;35.95;;;16.88;;
29214;SDS011;16252;49.816;7.964;2022-12-18T15:24:51;37.47;;;16.05;;
29214;SDS011;16252;49.816;7.964;2022-12-18T15:27:35;37.20;;;17.02;;
29214;SDS011;16252;49.816;7.964;2022-12-18T15:32:34;40.38;;;17.40;;
29214;SDS011;16252;49.816;7.964;2022-12-18T15:37:35;37.85;;;16.98;;
29214;SDS011;16252;49.816;7.964;2022-12-18T15:40:00;36.17;;;16.75;;
29214;SDS011;16252;49.816;7.964;2022-12-18T15:42:27;37.80;;;16.88;;
29214;SDS011;16252;49.816;7.964;2022-12-18T15:45:11;32.40;;;15.68;;
29214;SDS011;16252;49.816;7.964;2022-12-18T15:47:37;37.25;;;16.35;;
29214;SDS011;16252;49.816;7.964;2022-12-18T15:50:03;36.70;;;16.17;;
29214;SDS011;16252;49.816;7.964;2022-12-18T15:52:29;40.22;;;17.85;;
29214;SDS011;16252;49.816;7.964;2022-12-18T15:54:55;32.17;;;16.95;;
29214;SDS011;16252;49.816;7.964;2022-12-18T15:57:39;36.92;;;15.88;;
29214;SDS011;16252;49.816;7.964;2022-12-18T16:00:11;33.40;;;17.13;;
29214;SDS011;16252;49.816;7.964;2022-12-18T16:02:37;37.25;;;16.33;;
29214;SDS011;16252;49.816;7.964;2022-12-18T16:05:02;38.92;;;15.93;;
29214;SDS011;16252;49.816;7.964;2022-12-18T16:07:28;37.38;;;16.50;;
29214;SDS011;16252;49.816;7.964;2022-12-18T16:09:53;43.92;;;18.55;;
29214;SDS011;16252;49.816;7.964;2022-12-18T16:12:20;42.42;;;20.33;;
29214;SDS011;16252;49.816;7.964;2022-12-18T16:14:47;44.15;;;18.92;;
29214;SDS011;16252;49.816;7.964;2022-12-18T16:17:13;41.20;;;19.02;;
29214;SDS011;16252;49.816;7.964;2022-12-18T16:19:39;42.40;;;18.75;;
29214;SDS011;16252;49.816;7.964;2022-12-18T16:22:18;39.03;;;19.00;;
29214;SDS011;16252;49.816;7.964;2022-12-18T16:24:54;36.63;;;18.88;;
29214;SDS011;16252;49.816;7.964;2022-12-18T16:27:20;38.70;;;19.05;;
29214;SDS011;16252;49.816;7.964;2022-12-18T16:29:46;42.75;;;18.25;;
29214;SDS011;16252;49.816;7.964;2022-12-18T16:32:13;42.67;;;18.45;;